GAGO

Details ICAO GAGO (GAQ)
Name GAO
Region Mali
Timezone Africa/Bamako (UTC+0.0)
Plans Departing 4
Arriving 10
Stats Elevation 870 ft / 265 m (AMSL)
Location 16.248434° -0.005457°
Runways 1
Magnetic Variation 1.236° W
Sunrise 2018-05-23 05:29:22 UTC / 2018-05-23 05:29:22 Local
Sunset 2018-05-23 18:27:02 UTC / 2018-05-23 18:27:02 Local
Advertisement - Login to hide

Runways

ID Width Length Bearing (true) Bearing (mag) Surface Threshold Offset Overrun Length
07 148 ft / 45 m 8,198 ft / 2,499 m 62.31° 63.55° Asphalt 0 ft / 0 m 60 ft / 18 m
25 148 ft / 45 m 8,198 ft / 2,499 m 242.31° 243.55° Asphalt 0 ft / 0 m 780 ft / 238 m

Map

Weather


0- 5 10 15 20 25 30 35+ Temperature / ° C

Clouds and Precipitation
Forecast for 2018-05-23 18:00 UTC. Updated 5 hours ago

Ground ~20,000 ft ~40,000 ft Winds

METAR

Not found

TAF

TAF GAGO 231708Z 2318/2418 24010G20KT 6000 FEW040 PROB40 TEMPO 2320/2324 2000 TSDU SCT033 FEW040CB PROB40 TEMPO 2404/2412 14015G25KT 1200 BLDU TS SCT033 FEW040CB

Frequencies

Tower 118.10 MHz TWR
Warning: Do not use this data for real-world aviation or navigation. No guarantee of current accuracy is given.